Abilene, Kansas
Current Conditions -  °F | °C
As of 7:53 AM on Monday 20 Oct 2014 (Local Time) from KSLN Reporting Station
Haze Haze  
Wind Chill:   Ceiling: Unl
Heat Index:   Visibility: 3mi
Dew Point:   Wind: 5mph
Humidity: 93%   Direction: 270°W
Pressure: 30.07"   Gusts: NA
Location:  38.92°N, 97.21°W
Report Text: KSLN 201253Z 27004KT 3SM HZ CLR 08/07 A3007 RMK AO2 SLP181 T00830072
Loading
Personal Weather Stations






























Interactive Weather Map
Tropical Storm Tracking
New forecast layout! Learn more

10-Day Weather Forecast

Advertisements
Track Severe Weather on mobile